createdAt,value
2022-09-06T00:00:43.670Z,87.85
2022-09-06T00:01:43.647Z,87.65
2022-09-06T00:02:43.773Z,87.55
2022-09-06T00:03:43.705Z,87.85
2022-09-06T00:04:43.660Z,87.95
2022-09-06T00:05:43.620Z,88.29
2022-09-06T00:06:43.625Z,88.59
2022-09-06T00:07:43.581Z,89.00
2022-09-06T00:08:43.577Z,89.34
2022-09-06T00:09:43.591Z,89.54
2022-09-06T00:10:43.572Z,89.89
2022-09-06T00:11:43.527Z,90.39
2022-09-06T00:12:43.513Z,90.69
2022-09-06T00:13:43.491Z,91.14
2022-09-06T00:14:43.513Z,91.64
2022-09-06T00:15:43.605Z,92.05
2022-09-06T00:16:43.500Z,91.85
2022-09-06T00:17:43.447Z,91.85
2022-09-06T00:18:43.461Z,91.85
2022-09-06T00:19:43.414Z,91.85
2022-09-06T00:20:43.434Z,91.85
2022-09-06T00:21:43.415Z,91.85
2022-09-06T00:22:43.404Z,91.54
2022-09-06T00:23:43.394Z,91.08
2022-09-06T00:24:43.367Z,90.88
2022-09-06T00:25:43.338Z,90.82
2022-09-06T00:26:43.331Z,91.37
2022-09-06T00:27:43.308Z,92.07
2022-09-06T00:28:43.635Z,92.58
2022-09-06T00:29:43.306Z,92.98
2022-09-06T00:30:43.319Z,92.94
2022-09-06T00:31:43.290Z,92.94
2022-09-06T00:32:43.293Z,92.74
2022-09-06T00:33:43.623Z,92.54
2022-09-06T00:34:43.353Z,92.49
2022-09-06T00:35:43.194Z,92.69
2022-09-06T00:36:43.216Z,92.90
2022-09-06T00:37:43.377Z,92.90
2022-09-06T00:38:43.192Z,92.99
2022-09-06T00:39:43.181Z,92.45
2022-09-06T00:40:43.292Z,91.85
2022-09-06T00:41:43.121Z,91.34
2022-09-06T00:42:43.178Z,91.14
2022-09-06T00:43:43.142Z,91.14
2022-09-06T00:44:43.110Z,91.24
2022-09-06T00:45:43.080Z,91.34
2022-09-06T00:46:43.134Z,91.44
2022-09-06T00:47:43.046Z,91.44
2022-09-06T00:48:43.117Z,91.44
2022-09-06T00:49:43.129Z,91.44
2022-09-06T00:50:43.003Z,91.50
2022-09-06T00:51:43.974Z,91.60
2022-09-06T00:52:43.686Z,91.39
2022-09-06T00:53:42.967Z,91.19
2022-09-06T00:54:42.984Z,91.09
2022-09-06T00:55:42.948Z,91.09
2022-09-06T00:56:42.937Z,91.09
2022-09-06T00:57:42.902Z,91.19
2022-09-06T00:58:42.930Z,91.25
2022-09-06T00:59:43.074Z,90.95
2022-09-06T01:00:42.912Z,90.75
2022-09-06T01:01:42.946Z,89.84
2022-09-06T01:02:42.986Z,89.34
2022-09-06T01:03:42.851Z,88.23
2022-09-06T01:04:42.858Z,87.43
2022-09-06T01:05:42.825Z,87.39
2022-09-06T01:06:42.793Z,87.29
2022-09-06T01:07:42.792Z,86.68
2022-09-06T01:08:42.859Z,86.44
2022-09-06T01:09:42.795Z,86.34
2022-09-06T01:10:42.774Z,86.04
2022-09-06T01:11:42.739Z,84.49
2022-09-06T01:12:42.721Z,83.79
2022-09-06T01:13:42.706Z,83.18
2022-09-06T01:14:42.713Z,82.75
2022-09-06T01:15:42.738Z,83.15
2022-09-06T01:16:43.685Z,83.95
2022-09-06T01:17:42.676Z,84.55
2022-09-06T01:18:43.607Z,85.66
2022-09-06T01:19:42.644Z,86.46
2022-09-06T01:20:42.645Z,87.77
2022-09-06T01:21:42.585Z,88.71
2022-09-06T01:22:42.593Z,89.82
2022-09-06T01:23:43.094Z,90.62
2022-09-06T01:24:42.554Z,92.17
2022-09-06T01:25:42.537Z,93.48
2022-09-06T01:26:43.606Z,94.23
2022-09-06T01:27:42.595Z,95.13
2022-09-06T01:28:42.507Z,95.98
2022-09-06T01:29:42.482Z,96.39
2022-09-06T01:30:42.713Z,96.89
2022-09-06T01:31:43.080Z,97.64
2022-09-06T01:32:42.654Z,97.94
2022-09-06T01:33:42.455Z,98.44
2022-09-06T01:34:42.483Z,98.65
2022-09-06T01:35:42.478Z,98.85
2022-09-06T01:36:54.318Z,98.74
2022-09-06T01:37:42.383Z,98.54
2022-09-06T01:38:42.360Z,98.65
2022-09-06T01:39:42.461Z,98.74
2022-09-06T01:40:42.702Z,99.05
2022-09-06T01:41:42.326Z,99.15
2022-09-06T01:42:42.306Z,99.35
2022-09-06T01:43:42.282Z,99.55
2022-09-06T01:44:42.380Z,99.71
2022-09-06T01:45:42.312Z,99.71
2022-09-06T01:46:42.279Z,99.71
2022-09-06T01:47:42.276Z,99.60
2022-09-06T01:48:42.251Z,99.55
2022-09-06T01:49:42.218Z,99.45
2022-09-06T01:50:42.233Z,99.45
2022-09-06T01:51:42.230Z,99.35
2022-09-06T01:52:42.381Z,99.35
2022-09-06T01:53:43.185Z,99.50
2022-09-06T01:54:42.338Z,99.70
2022-09-06T01:55:42.164Z,99.80
2022-09-06T01:56:42.134Z,99.99
2022-09-06T01:57:42.653Z,99.99
2022-09-06T01:58:42.100Z,99.99
2022-09-06T01:59:42.130Z,99.99
2022-09-06T02:00:42.063Z,99.99
2022-09-06T02:01:42.105Z,99.99
2022-09-06T02:02:42.203Z,99.99
2022-09-06T02:03:42.061Z,99.99
2022-09-06T02:04:42.008Z,99.95
2022-09-06T02:05:42.014Z,99.55
2022-09-06T02:06:42.047Z,99.05
2022-09-06T02:07:42.016Z,98.44
2022-09-06T02:08:42.162Z,97.84
2022-09-06T02:09:41.948Z,97.24
2022-09-06T02:10:41.939Z,97.24
2022-09-06T02:11:41.979Z,97.13
2022-09-06T02:12:41.985Z,97.24
2022-09-06T02:13:41.929Z,97.49
2022-09-06T02:14:41.894Z,97.59
2022-09-06T02:15:41.871Z,97.69
2022-09-06T02:16:41.894Z,97.59
2022-09-06T02:17:41.894Z,97.59
2022-09-06T02:18:42.694Z,97.69
2022-09-06T02:19:41.839Z,97.79
2022-09-06T02:20:41.803Z,97.69
2022-09-06T02:21:41.799Z,97.39
2022-09-06T02:22:41.950Z,97.49
2022-09-06T02:23:41.794Z,97.39
2022-09-06T02:24:41.785Z,97.59
2022-09-06T02:25:41.738Z,97.69
2022-09-06T02:26:41.768Z,97.69
2022-09-06T02:27:42.474Z,97.79
2022-09-06T02:28:41.734Z,97.69
2022-09-06T02:29:41.692Z,97.79
2022-09-06T02:30:41.749Z,97.99
2022-09-06T02:31:41.708Z,98.39
2022-09-06T02:32:41.662Z,98.90
2022-09-06T02:33:41.620Z,99.15
2022-09-06T02:34:41.624Z,99.35
2022-09-06T02:35:41.602Z,99.45
2022-09-06T02:36:41.625Z,99.65
2022-09-06T02:37:41.602Z,99.65
2022-09-06T02:38:41.581Z,99.60
2022-09-06T02:39:41.630Z,99.60
2022-09-06T02:40:41.590Z,99.45
2022-09-06T02:41:41.516Z,99.45
2022-09-06T02:42:41.553Z,99.55
2022-09-06T02:43:41.504Z,99.45
2022-09-06T02:44:41.490Z,99.35
2022-09-06T02:45:41.565Z,99.25
2022-09-06T02:46:41.468Z,99.05
2022-09-06T02:47:41.494Z,99.10
2022-09-06T02:48:41.430Z,99.20
2022-09-06T02:49:41.419Z,99.15
2022-09-06T02:50:41.417Z,98.85
2022-09-06T02:51:41.477Z,98.94
2022-09-06T02:52:41.394Z,99.30
2022-09-06T02:53:41.364Z,99.60
2022-09-06T02:54:41.385Z,99.80
2022-09-06T02:55:41.356Z,99.80
2022-09-06T02:56:41.326Z,99.75
2022-09-06T02:57:41.361Z,99.80
2022-09-06T02:58:41.397Z,99.90
2022-09-06T02:59:41.329Z,99.99
2022-09-06T03:00:41.288Z,99.99
2022-09-06T03:01:41.284Z,99.99
2022-09-06T03:02:41.331Z,99.99
2022-09-06T03:03:41.225Z,99.99
2022-09-06T03:04:41.250Z,99.99
2022-09-06T03:05:41.198Z,99.99
2022-09-06T03:06:41.199Z,99.99
2022-09-06T03:07:41.211Z,99.99
2022-09-06T03:08:41.154Z,99.99
2022-09-06T03:09:41.167Z,99.99
2022-09-06T03:10:41.142Z,99.99
2022-09-06T03:11:41.132Z,99.99
2022-09-06T03:12:41.121Z,99.99
2022-09-06T03:13:41.257Z,99.99
2022-09-06T03:14:41.076Z,99.99
2022-09-06T03:15:41.057Z,99.99
2022-09-06T03:16:41.155Z,99.99
2022-09-06T03:17:41.048Z,99.99
2022-09-06T03:18:41.023Z,99.99
2022-09-06T03:19:41.014Z,99.99
2022-09-06T03:20:41.005Z,99.99
2022-09-06T03:21:41.016Z,99.99
2022-09-06T03:22:40.974Z,99.99
2022-09-06T03:23:40.949Z,99.99
2022-09-06T03:24:41.418Z,99.99
2022-09-06T03:25:40.946Z,99.99
2022-09-06T03:26:40.963Z,99.99
2022-09-06T03:27:41.679Z,99.99
2022-09-06T03:28:40.903Z,99.99
2022-09-06T03:29:40.890Z,99.99
2022-09-06T03:30:41.753Z,99.99
2022-09-06T03:31:40.871Z,99.99
2022-09-06T03:32:41.925Z,99.99
2022-09-06T03:33:40.852Z,99.99
2022-09-06T03:34:41.495Z,99.99
2022-09-06T03:35:40.800Z,99.99
2022-09-06T03:36:40.776Z,99.99
2022-09-06T03:37:40.773Z,99.99
2022-09-06T03:38:41.410Z,99.99
2022-09-06T03:39:40.803Z,99.99
2022-09-06T03:40:40.735Z,99.99
2022-09-06T03:41:40.715Z,99.99
2022-09-06T03:42:40.694Z,99.99
2022-09-06T03:43:40.726Z,99.99
2022-09-06T03:44:40.681Z,99.99
2022-09-06T03:45:40.714Z,99.99
2022-09-06T03:46:40.650Z,99.99
2022-09-06T03:47:40.636Z,99.99
2022-09-06T03:48:40.677Z,99.99
2022-09-06T03:49:40.609Z,99.99
2022-09-06T03:50:40.638Z,99.99
2022-09-06T03:51:40.584Z,99.99
2022-09-06T03:52:40.578Z,99.99
2022-09-06T03:53:40.571Z,99.99
2022-09-06T03:54:40.559Z,99.99
2022-09-06T03:55:40.549Z,99.99
2022-09-06T03:56:40.521Z,99.99
2022-09-06T03:57:40.517Z,99.99
2022-09-06T03:58:40.552Z,99.99
2022-09-06T03:59:40.546Z,99.99
2022-09-06T04:00:40.448Z,99.99
2022-09-06T04:01:40.524Z,99.99
2022-09-06T04:02:40.525Z,99.99
2022-09-06T04:03:40.412Z,99.99
2022-09-06T04:04:40.440Z,99.99
2022-09-06T04:05:40.472Z,99.99
2022-09-06T04:06:40.382Z,99.99
2022-09-06T04:07:40.381Z,99.99
2022-09-06T04:08:40.370Z,99.99
2022-09-06T04:09:40.337Z,99.99
2022-09-06T04:10:41.682Z,99.99
2022-09-06T04:11:40.999Z,99.99
2022-09-06T04:12:40.334Z,99.99
2022-09-06T04:13:40.321Z,99.99
2022-09-06T04:14:40.275Z,99.99
2022-09-06T04:15:40.258Z,99.99
2022-09-06T04:16:40.418Z,99.99
2022-09-06T04:17:40.219Z,99.99
2022-09-06T04:18:40.225Z,99.99
2022-09-06T04:19:40.229Z,99.99
2022-09-06T04:20:40.191Z,99.99
2022-09-06T04:21:40.176Z,99.99
2022-09-06T04:22:40.203Z,99.99
2022-09-06T04:23:40.271Z,99.99
2022-09-06T04:24:40.154Z,99.85
2022-09-06T04:25:40.148Z,99.74
2022-09-06T04:26:40.111Z,99.65
2022-09-06T04:27:40.134Z,99.59
2022-09-06T04:28:40.202Z,99.49
2022-09-06T04:29:40.113Z,99.59
2022-09-06T04:30:40.061Z,99.69
2022-09-06T04:31:40.207Z,99.89
2022-09-06T04:32:40.056Z,99.89
2022-09-06T04:33:40.880Z,99.95
2022-09-06T04:34:40.016Z,99.99
2022-09-06T04:35:39.986Z,99.85
2022-09-06T04:36:39.986Z,99.69
2022-09-06T04:37:39.971Z,99.69
2022-09-06T04:38:39.982Z,99.79
2022-09-06T04:39:39.986Z,99.79
2022-09-06T04:40:39.972Z,99.69
2022-09-06T04:41:39.928Z,99.49
2022-09-06T04:42:39.902Z,99.59
2022-09-06T04:43:39.906Z,99.59
2022-09-06T04:44:39.868Z,99.64
2022-09-06T04:45:39.937Z,99.79
2022-09-06T04:46:39.853Z,99.79
2022-09-06T04:47:39.834Z,99.99
2022-09-06T04:48:39.818Z,99.99
2022-09-06T04:49:39.810Z,99.99
2022-09-06T04:50:39.797Z,99.89
2022-09-06T04:51:39.802Z,99.79
2022-09-06T04:52:40.481Z,99.59
2022-09-06T04:53:39.749Z,99.39
2022-09-06T04:54:39.862Z,99.29
2022-09-06T04:55:39.751Z,99.19
2022-09-06T04:56:39.733Z,99.08
2022-09-06T04:57:44.473Z,99.08
2022-09-06T04:58:39.677Z,99.08
2022-09-06T04:59:40.038Z,98.99
2022-09-06T05:00:39.722Z,98.99
2022-09-06T05:01:40.130Z,98.88
2022-09-06T05:02:40.273Z,98.88
2022-09-06T05:03:39.626Z,98.99
2022-09-06T05:04:39.592Z,99.08
2022-09-06T05:05:39.588Z,99.14
2022-09-06T05:06:39.611Z,99.24
2022-09-06T05:07:39.998Z,99.14
2022-09-06T05:08:39.684Z,99.04
2022-09-06T05:09:39.561Z,98.74
2022-09-06T05:10:39.893Z,98.64
2022-09-06T05:11:40.526Z,98.33
2022-09-06T05:12:43.655Z,98.28
2022-09-06T05:13:39.514Z,98.18
2022-09-06T05:14:39.457Z,98.33
2022-09-06T05:15:39.460Z,98.18
2022-09-06T05:16:39.501Z,97.67
2022-09-06T05:17:39.425Z,97.58
2022-09-06T05:18:39.429Z,97.52
2022-09-06T05:19:39.391Z,97.62
2022-09-06T05:20:39.414Z,97.72
2022-09-06T05:21:39.399Z,97.92
2022-09-06T05:22:39.393Z,98.02
2022-09-06T05:23:39.358Z,98.22
2022-09-06T05:24:39.399Z,98.43
2022-09-06T05:25:39.329Z,98.53
2022-09-06T05:26:39.341Z,98.83
2022-09-06T05:27:39.365Z,98.93
2022-09-06T05:28:39.345Z,99.04
2022-09-06T05:29:39.436Z,99.13
2022-09-06T05:30:39.693Z,99.24
2022-09-06T05:31:39.307Z,99.33
2022-09-06T05:32:39.368Z,99.33
2022-09-06T05:33:39.226Z,99.24
2022-09-06T05:34:41.186Z,99.24
2022-09-06T05:35:39.796Z,99.24
2022-09-06T05:36:39.643Z,99.24
2022-09-06T05:37:39.172Z,99.33
2022-09-06T05:38:39.284Z,99.54
2022-09-06T05:39:39.206Z,99.74
2022-09-06T05:40:39.158Z,99.79
2022-09-06T05:41:39.283Z,99.89
2022-09-06T05:42:39.147Z,99.89
2022-09-06T05:43:39.279Z,99.99
2022-09-06T05:44:39.080Z,99.99
2022-09-06T05:45:39.242Z,99.99
2022-09-06T05:46:39.501Z,99.99
2022-09-06T05:47:39.027Z,99.99
2022-09-06T05:48:39.072Z,99.79
2022-09-06T05:49:39.598Z,99.49
2022-09-06T05:50:38.983Z,99.19
2022-09-06T05:51:38.999Z,99.08
2022-09-06T05:52:39.318Z,99.08
2022-09-06T05:53:38.989Z,98.99
2022-09-06T05:54:38.951Z,98.99
2022-09-06T05:55:42.734Z,99.08
2022-09-06T05:56:39.054Z,99.19
2022-09-06T05:57:38.920Z,99.08
2022-09-06T05:58:38.892Z,99.08
2022-09-06T05:59:39.029Z,98.99
2022-09-06T06:00:38.906Z,98.99
2022-09-06T06:01:38.872Z,98.94
2022-09-06T06:02:38.947Z,98.94
2022-09-06T06:03:38.833Z,98.94
2022-09-06T06:04:38.829Z,98.84
2022-09-06T06:05:38.771Z,98.84
2022-09-06T06:06:38.774Z,98.74
2022-09-06T06:07:39.415Z,98.64
2022-09-06T06:08:38.767Z,98.33
2022-09-06T06:09:39.496Z,98.03
2022-09-06T06:10:38.840Z,97.93
2022-09-06T06:11:38.704Z,97.83
2022-09-06T06:12:38.686Z,97.93
2022-09-06T06:13:38.708Z,98.03
2022-09-06T06:14:38.664Z,98.13
2022-09-06T06:15:38.636Z,98.24
2022-09-06T06:16:38.696Z,98.54
2022-09-06T06:17:38.666Z,98.64
2022-09-06T06:18:38.680Z,98.54
2022-09-06T06:19:40.146Z,98.74
2022-09-06T06:20:38.604Z,98.64
2022-09-06T06:21:38.579Z,98.74
2022-09-06T06:22:38.654Z,98.64
2022-09-06T06:23:38.709Z,98.64
2022-09-06T06:24:38.542Z,98.54
2022-09-06T06:25:38.525Z,98.74
2022-09-06T06:26:38.573Z,98.79
2022-09-06T06:27:38.504Z,98.88
2022-09-06T06:28:38.724Z,98.94
2022-09-06T06:29:39.099Z,99.14
2022-09-06T06:30:38.460Z,99.34
2022-09-06T06:31:38.534Z,99.54
2022-09-06T06:32:38.432Z,99.74
2022-09-06T06:33:38.395Z,99.99
2022-09-06T06:34:38.386Z,99.99
2022-09-06T06:35:40.227Z,99.99
2022-09-06T06:36:38.984Z,99.99
2022-09-06T06:37:38.365Z,99.99
2022-09-06T06:38:38.336Z,99.70
2022-09-06T06:39:38.383Z,99.70
2022-09-06T06:40:39.203Z,99.50
2022-09-06T06:41:38.333Z,99.50
2022-09-06T06:42:38.281Z,99.50
2022-09-06T06:43:38.277Z,99.60
2022-09-06T06:44:38.307Z,99.80
2022-09-06T06:45:38.365Z,99.90
2022-09-06T06:46:38.274Z,99.85
2022-09-06T06:47:38.254Z,99.95
2022-09-06T06:48:38.196Z,99.85
2022-09-06T06:49:38.181Z,99.75
2022-09-06T06:50:38.170Z,99.85
2022-09-06T06:51:38.169Z,99.95
2022-09-06T06:52:38.167Z,99.99
2022-09-06T06:53:38.156Z,99.99
2022-09-06T06:54:38.114Z,99.99
2022-09-06T06:55:38.121Z,99.99
2022-09-06T06:56:38.122Z,99.99
2022-09-06T06:57:38.104Z,99.96
2022-09-06T06:58:38.068Z,99.96
2022-09-06T06:59:38.050Z,99.76
2022-09-06T07:00:38.270Z,99.55
2022-09-06T07:01:38.138Z,99.35
2022-09-06T07:02:38.411Z,99.15
2022-09-06T07:03:38.020Z,99.05
2022-09-06T07:04:38.009Z,98.95
2022-09-06T07:07:40.903Z,98.85
2022-09-06T07:08:37.943Z,98.80
2022-09-06T07:10:38.135Z,98.71
2022-09-06T07:11:37.905Z,98.60
2022-09-06T07:12:37.947Z,98.80
2022-09-06T07:13:37.882Z,99.01
2022-09-06T07:14:37.850Z,99.11
2022-09-06T07:15:37.838Z,98.96
2022-09-06T07:16:37.917Z,98.86
2022-09-06T07:17:37.837Z,98.76
2022-09-06T07:18:37.821Z,98.66
2022-09-06T07:21:38.557Z,98.96
2022-09-06T07:22:37.794Z,99.06
2022-09-06T07:24:37.726Z,98.76
2022-09-06T07:25:37.712Z,98.76
2022-09-06T07:26:38.181Z,98.71
2022-09-06T07:27:53.076Z,98.71
2022-09-06T07:28:37.664Z,98.61
2022-09-06T07:29:37.668Z,98.51
2022-09-06T07:30:37.653Z,98.31
2022-09-06T07:32:37.740Z,98.31
2022-09-06T07:33:37.601Z,98.36
2022-09-06T07:34:37.630Z,98.26
2022-09-06T07:35:37.576Z,98.36
2022-09-06T07:36:37.590Z,98.36
2022-09-06T07:37:37.655Z,98.36
2022-09-06T07:38:38.205Z,98.36
2022-09-06T07:39:37.734Z,97.96
2022-09-06T07:40:37.609Z,97.76
2022-09-06T07:41:37.548Z,97.56
2022-09-06T07:42:37.496Z,97.26
2022-09-06T07:43:37.589Z,97.26
2022-09-06T07:44:37.485Z,97.31
2022-09-06T07:45:37.494Z,97.52
2022-09-06T07:46:37.527Z,97.21
2022-09-06T07:48:37.406Z,96.91
2022-09-06T07:49:37.404Z,96.91
2022-09-06T07:50:55.915Z,96.87
2022-09-06T07:51:37.620Z,96.71
2022-09-06T07:53:37.853Z,95.91
2022-09-06T07:54:37.357Z,96.01
2022-09-06T07:55:37.328Z,96.11
2022-09-06T07:56:37.295Z,96.11
2022-09-06T07:57:37.287Z,96.31
2022-09-06T07:58:37.277Z,96.31
2022-09-06T07:59:40.041Z,96.36
2022-09-06T08:00:37.355Z,96.26
2022-09-06T08:01:37.339Z,96.17
2022-09-06T08:02:37.224Z,96.26
2022-09-06T08:03:37.187Z,96.26
2022-09-06T08:04:37.258Z,96.17
2022-09-06T08:07:38.965Z,96.56
2022-09-06T08:09:37.175Z,96.47
2022-09-06T08:10:37.109Z,96.56
2022-09-06T08:11:37.115Z,96.26
2022-09-06T08:12:37.098Z,96.56
2022-09-06T08:13:37.076Z,96.56
2022-09-06T08:14:37.116Z,96.67
2022-09-06T08:15:41.477Z,96.77
2022-09-06T08:16:37.094Z,96.62
2022-09-06T08:17:37.037Z,96.32
2022-09-06T08:18:36.989Z,95.52
2022-09-06T08:19:36.990Z,94.82
2022-09-06T08:20:36.994Z,94.71
2022-09-06T08:21:36.963Z,95.01
2022-09-06T08:22:36.952Z,94.71
2022-09-06T08:23:36.928Z,94.51
2022-09-06T08:24:36.924Z,94.42
2022-09-06T08:25:36.926Z,94.57
2022-09-06T08:26:36.954Z,94.67
2022-09-06T08:27:36.911Z,94.47
2022-09-06T08:28:36.867Z,94.57
2022-09-06T08:29:36.874Z,94.47
2022-09-06T08:30:37.693Z,93.97
2022-09-06T08:31:36.871Z,93.87
2022-09-06T08:32:36.829Z,94.17
2022-09-06T08:33:36.806Z,94.47
2022-09-06T08:34:36.842Z,94.87
2022-09-06T08:35:36.855Z,95.07
2022-09-06T08:36:36.768Z,94.97
2022-09-06T08:37:36.973Z,95.07
2022-09-06T08:38:36.748Z,95.37
2022-09-06T08:39:36.901Z,94.53
2022-09-06T08:40:36.715Z,93.88
2022-09-06T08:41:36.701Z,93.74
2022-09-06T08:42:36.702Z,92.89
2022-09-06T08:43:36.669Z,91.95
2022-09-06T08:45:36.646Z,89.40
2022-09-06T08:46:36.712Z,88.67
2022-09-06T08:47:36.637Z,88.26
2022-09-06T08:48:36.610Z,86.52
2022-09-06T08:49:36.621Z,85.83
2022-09-06T08:50:36.582Z,84.29
2022-09-06T08:51:38.349Z,84.59
2022-09-06T08:52:41.738Z,83.69
2022-09-06T08:53:36.567Z,84.39
2022-09-06T08:54:36.553Z,83.29
2022-09-06T08:55:36.521Z,85.69
2022-09-06T08:56:36.508Z,85.14
2022-09-06T08:57:40.321Z,82.26
2022-09-06T08:58:36.543Z,82.51
2022-09-06T08:59:36.457Z,82.81
2022-09-06T09:00:36.550Z,79.99
2022-09-06T09:01:36.585Z,79.58
2022-09-06T09:02:36.432Z,79.75
2022-09-06T09:03:36.419Z,78.95
2022-09-06T09:04:36.400Z,79.45
2022-09-06T09:05:36.368Z,78.65
2022-09-06T09:06:36.364Z,77.86
2022-09-06T09:07:36.394Z,77.86
2022-09-06T09:08:37.687Z,77.95
2022-09-06T09:09:36.351Z,77.56
2022-09-06T09:10:36.342Z,77.72
2022-09-06T09:11:36.475Z,78.12
2022-09-06T09:12:36.544Z,78.12
2022-09-06T09:13:36.298Z,79.31
2022-09-06T09:14:36.262Z,78.02
2022-09-06T09:15:40.253Z,78.72
2022-09-06T09:16:36.307Z,76.96
2022-09-06T09:17:36.233Z,78.06
2022-09-06T09:18:36.213Z,79.45
2022-09-06T09:19:36.210Z,78.65
2022-09-06T09:20:36.178Z,77.12
2022-09-06T09:21:36.155Z,76.53
2022-09-06T09:22:36.161Z,78.12
2022-09-06T09:23:36.139Z,79.91
2022-09-06T09:24:36.650Z,81.26
2022-09-06T09:25:36.134Z,80.13
2022-09-06T09:26:36.285Z,77.94
2022-09-06T09:27:36.154Z,76.42
2022-09-06T09:28:36.096Z,75.72
2022-09-06T09:29:36.549Z,75.62
2022-09-06T09:30:51.470Z,76.06
2022-09-06T09:31:36.105Z,77.55
2022-09-06T09:32:36.090Z,77.25
2022-09-06T09:33:36.009Z,78.11
2022-09-06T09:34:36.022Z,77.11
2022-09-06T09:35:36.022Z,77.01
2022-09-06T09:36:35.984Z,76.18
2022-09-06T09:38:35.960Z,76.61
2022-09-06T09:39:36.284Z,75.78
2022-09-06T09:40:35.930Z,74.69
2022-09-06T09:41:35.930Z,75.78
2022-09-06T09:42:35.897Z,74.99
2022-09-06T09:43:35.941Z,76.08
2022-09-06T09:44:35.896Z,75.32
2022-09-06T09:45:35.881Z,76.42
2022-09-06T09:46:35.936Z,75.95
2022-09-06T09:47:35.830Z,77.28
2022-09-06T09:48:35.837Z,77.48
2022-09-06T09:49:36.084Z,78.48
2022-09-06T09:50:35.800Z,79.67
2022-09-06T09:51:35.817Z,77.88
2022-09-06T09:52:35.778Z,79.37
2022-09-06T09:53:35.893Z,77.98
2022-09-06T09:54:36.089Z,78.28
2022-09-06T09:55:35.750Z,78.38
2022-09-06T09:56:35.758Z,78.58
2022-09-06T09:57:35.721Z,78.48
2022-09-06T09:58:35.734Z,79.87
2022-09-06T09:59:35.808Z,78.08
2022-09-06T10:00:35.726Z,77.19
2022-09-06T10:01:35.718Z,78.54
2022-09-06T10:02:35.628Z,77.64
2022-09-06T10:03:35.745Z,77.01
2022-09-06T10:04:43.211Z,77.61
2022-09-06T10:05:35.627Z,76.87
2022-09-06T10:07:36.017Z,77.51
2022-09-06T10:08:35.578Z,77.61
2022-09-06T10:09:35.556Z,78.27
2022-09-06T10:10:35.568Z,77.27
2022-09-06T10:11:35.565Z,75.88
2022-09-06T10:12:35.526Z,76.04
2022-09-06T10:13:35.501Z,76.64
2022-09-06T10:14:35.509Z,75.55
2022-09-06T10:15:35.494Z,75.05
2022-09-06T10:16:35.506Z,75.45
2022-09-06T10:17:35.488Z,75.55
2022-09-06T10:18:35.427Z,75.78
2022-09-06T10:19:35.416Z,76.18
2022-09-06T10:20:35.418Z,76.08
2022-09-06T10:21:35.567Z,76.68
2022-09-06T10:22:35.374Z,76.38
2022-09-06T10:24:35.349Z,76.18
2022-09-06T10:25:35.356Z,76.38
2022-09-06T10:26:35.602Z,75.95
2022-09-06T10:27:37.736Z,75.74
2022-09-06T10:28:35.304Z,73.93
2022-09-06T10:29:35.285Z,73.82
2022-09-06T10:30:35.291Z,74.32
2022-09-06T10:31:35.475Z,73.59
2022-09-06T10:32:35.258Z,73.99
2022-09-06T10:33:35.268Z,73.46
2022-09-06T10:34:35.204Z,74.84
2022-09-06T10:35:35.203Z,74.05
2022-09-06T10:36:35.232Z,73.25
2022-09-06T10:37:35.195Z,72.96
2022-09-06T10:38:35.280Z,71.67
2022-09-06T10:39:35.250Z,70.05
2022-09-06T10:40:35.155Z,70.45
2022-09-06T10:41:35.134Z,68.46
2022-09-06T10:42:35.125Z,69.26
2022-09-06T10:43:35.120Z,69.95
2022-09-06T10:44:35.084Z,69.85
2022-09-06T10:45:35.086Z,70.15
2022-09-06T10:46:35.156Z,69.85
2022-09-06T10:47:35.050Z,69.95
2022-09-06T10:48:35.080Z,70.65
2022-09-06T10:49:35.054Z,71.11
2022-09-06T10:50:35.023Z,70.42
2022-09-06T10:51:35.013Z,69.53
2022-09-06T10:52:35.023Z,69.02
2022-09-06T10:53:34.955Z,68.86
2022-09-06T10:54:34.997Z,69.16
2022-09-06T10:55:34.952Z,68.46
2022-09-06T10:56:34.958Z,69.65
2022-09-06T10:59:38.220Z,67.87
2022-09-06T11:00:34.888Z,67.68
2022-09-06T11:01:35.058Z,67.38
2022-09-06T11:02:35.335Z,67.18
2022-09-06T11:05:40.111Z,67.57
2022-09-06T11:06:34.807Z,67.11
2022-09-06T11:07:35.003Z,66.91
2022-09-06T11:08:51.257Z,66.61
2022-09-06T11:09:34.776Z,67.50
2022-09-06T11:10:34.763Z,66.19
2022-09-06T11:11:35.093Z,65.89
2022-09-06T11:12:34.740Z,66.39
2022-09-06T11:13:34.705Z,67.14
2022-09-06T11:14:34.735Z,67.24
2022-09-06T11:15:34.768Z,66.65
2022-09-06T11:16:34.764Z,66.82
2022-09-06T11:17:34.681Z,65.63
2022-09-06T11:18:34.644Z,65.92
2022-09-06T11:19:35.162Z,66.32
2022-09-06T11:20:34.614Z,65.33
2022-09-06T11:21:34.692Z,66.82
2022-09-06T11:22:34.609Z,66.52
2022-09-06T11:23:34.593Z,67.21
2022-09-06T11:24:34.605Z,66.52
2022-09-06T11:25:34.557Z,65.92
2022-09-06T11:26:34.583Z,66.13
2022-09-06T11:27:34.571Z,65.43
2022-09-06T11:28:34.573Z,65.73
2022-09-06T11:29:34.535Z,65.33
2022-09-06T11:30:34.507Z,66.22
2022-09-06T11:32:34.492Z,66.42
2022-09-06T11:33:34.458Z,65.03
2022-09-06T11:34:34.453Z,65.33
2022-09-06T11:35:34.508Z,64.87
2022-09-06T11:36:34.466Z,64.57
2022-09-06T11:37:34.390Z,65.56
2022-09-06T11:38:34.382Z,65.46
2022-09-06T11:40:35.211Z,64.37
2022-09-06T11:41:34.375Z,64.34
2022-09-06T11:42:34.328Z,63.35
2022-09-06T11:43:34.324Z,64.24
2022-09-06T11:44:34.303Z,64.14
2022-09-06T11:45:34.383Z,63.55
2022-09-06T11:46:34.556Z,64.64
2022-09-06T11:47:34.295Z,63.85
2022-09-06T11:48:34.517Z,63.25
2022-09-06T11:49:34.253Z,63.85
2022-09-06T11:50:34.228Z,63.45
2022-09-06T11:51:34.218Z,64.51
2022-09-06T11:52:34.307Z,63.42
2022-09-06T11:53:34.292Z,63.62
2022-09-06T11:54:34.195Z,63.42
2022-09-06T11:55:34.217Z,62.33
2022-09-06T11:56:34.212Z,62.63
2022-09-06T11:57:34.244Z,62.53
2022-09-06T11:58:34.208Z,62.73
2022-09-06T11:59:34.148Z,63.39
2022-09-06T12:00:34.119Z,62.90
2022-09-06T12:01:34.126Z,62.79
2022-09-06T12:02:34.297Z,61.71
2022-09-06T12:04:34.158Z,61.41
2022-09-06T12:05:34.055Z,61.80
2022-09-06T12:06:34.034Z,62.30
2022-09-06T12:07:34.154Z,61.51
2022-09-06T12:08:34.013Z,61.80
2022-09-06T12:09:33.985Z,61.68
2022-09-06T12:10:33.976Z,60.59
2022-09-06T12:11:33.968Z,61.58
2022-09-06T12:12:34.609Z,61.68
2022-09-06T12:13:33.961Z,61.29
2022-09-06T12:14:33.914Z,60.79
2022-09-06T12:15:34.019Z,61.68
2022-09-06T12:16:33.898Z,61.68
2022-09-06T12:17:33.893Z,61.38
2022-09-06T12:18:33.865Z,61.38
2022-09-06T12:19:33.857Z,61.68
2022-09-06T12:20:33.860Z,60.99
2022-09-06T12:21:33.836Z,61.29
2022-09-06T12:22:33.844Z,61.29
2022-09-06T12:23:33.809Z,60.99
2022-09-06T12:24:33.786Z,60.49
2022-09-06T12:25:33.779Z,61.38
2022-09-06T12:26:33.754Z,59.01
2022-09-06T12:27:33.771Z,59.90
2022-09-06T12:28:33.763Z,60.39
2022-09-06T12:29:33.716Z,60.99
2022-09-06T12:30:33.725Z,61.78
2022-09-06T12:31:33.765Z,60.76
2022-09-06T12:32:36.763Z,59.77
2022-09-06T12:33:33.687Z,59.97
2022-09-06T12:34:33.768Z,60.56
2022-09-06T12:36:33.645Z,57.77
2022-09-06T12:37:33.613Z,58.00
2022-09-06T12:38:33.607Z,58.98
2022-09-06T12:39:33.740Z,58.36
2022-09-06T12:40:33.578Z,58.16
2022-09-06T12:41:33.616Z,58.26
2022-09-06T12:42:33.546Z,58.36
2022-09-06T12:43:33.539Z,58.46
2022-09-06T12:44:33.519Z,58.06
2022-09-06T12:45:33.517Z,59.15
2022-09-06T12:46:33.550Z,59.25
2022-09-06T12:47:33.495Z,58.36
2022-09-06T12:48:33.480Z,59.12
2022-09-06T12:49:33.482Z,59.12
2022-09-06T12:50:33.571Z,57.84
2022-09-06T12:51:33.471Z,55.37
2022-09-06T12:52:33.456Z,57.54
2022-09-06T12:53:33.398Z,56.56
2022-09-06T12:54:33.407Z,56.95
2022-09-06T12:55:33.405Z,56.75
2022-09-06T12:56:33.373Z,56.56
2022-09-06T12:57:33.668Z,56.65
2022-09-06T12:58:33.405Z,56.65
2022-09-06T12:59:33.362Z,56.56
2022-09-06T13:00:33.333Z,57.24
2022-09-06T13:01:33.501Z,54.38
2022-09-06T13:02:33.419Z,56.56
2022-09-06T13:03:33.328Z,56.75
2022-09-06T13:04:33.265Z,56.75
2022-09-06T13:05:33.242Z,56.85
2022-09-06T13:06:33.279Z,56.75
2022-09-06T13:07:33.236Z,57.24
2022-09-06T13:08:33.269Z,56.16
2022-09-06T13:09:33.253Z,57.05
2022-09-06T13:10:33.202Z,57.24
2022-09-06T13:11:33.175Z,57.24
2022-09-06T13:12:33.159Z,56.85
2022-09-06T13:13:33.156Z,56.56
2022-09-06T13:14:33.169Z,57.15
2022-09-06T13:15:33.204Z,57.05
2022-09-06T13:16:33.116Z,58.23